Crown Point, Vermont
Current Conditions -  °F | °C
As of 6:35 AM on Tuesday 21 Oct 2014 (Local Time) from K6B0 Reporting Station
Overcast Overcast  
Wind Chill: 45°   Ceiling: 5000
Heat Index: 45°   Visibility: 7mi
Dew Point: 45°   Wind: 3mph
Humidity: 100%   Direction: 340°NNW
Pressure: 29.92"   Gusts: NA
Location:  44.0804°N, 73.3324°W
Report Text: K6B0 211035Z AUTO 34003KT 7SM BKN050 OVC075 07/07 A2992 RMK AO2 P0001 T00700070
Loading
Personal Weather Stations






























Interactive Weather Map New forecast layout! Learn more

10-Day Weather Forecast

Advertisements
Track Severe Weather on mobile